VRE706 DIAP-GOBD
Flight info
| Callsign | VRE706 |
|---|---|
| Flight time | N/A |
| Altitude | 36000 |
| Route | ARLIX UR979 ERIDI ERIDI1A |
| Aircraft | A319/M-SDE3FGHIRWY/LB1 |
Departure
| Time | 2026-05-07 10:57 |
|---|---|
| Airport | Félix-Houphouët-Boigny International Airport (DIAP) |
Arrival
| Time | N/A |
|---|---|
| Airport | Blaise Diagne International Airport (GOBD) |
| Time | Latitude | Longitude | Altitude | Speed | Heading |
|---|---|---|---|---|---|
| 2026-05-07 10:33 | 5.25666 | -3.93091 | 34 ft | 0 kts | 291° |
| 2026-05-07 10:45 | 5.25665 | -3.93087 | 34 ft | 2 kts | 292° |
| 2026-05-07 10:46 | 5.25659 | -3.93074 | 34 ft | 2 kts | 291° |
| 2026-05-07 10:46 | 5.25654 | -3.93060 | 34 ft | 2 kts | 291° |
| 2026-05-07 10:46 | 5.25648 | -3.93046 | 34 ft | 2 kts | 291° |
| 2026-05-07 10:46 | 5.25643 | -3.93032 | 34 ft | 2 kts | 291° |
| 2026-05-07 10:47 | 5.25637 | -3.93018 | 34 ft | 2 kts | 291° |
| 2026-05-07 10:47 | 5.25629 | -3.93005 | 34 ft | 2 kts | 317° |
| 2026-05-07 10:47 | 5.25617 | -3.92997 | 34 ft | 2 kts | 338° |
| 2026-05-07 10:47 | 5.25602 | -3.92993 | 34 ft | 2 kts | 359° |
| 2026-05-07 10:48 | 5.25588 | -3.92995 | 34 ft | 1 kts | 19° |
| 2026-05-07 10:48 | 5.25582 | -3.92997 | 34 ft | 1 kts | 25° |
| 2026-05-07 10:48 | 5.25580 | -3.92998 | 34 ft | 0 kts | 23° |
| 2026-05-07 10:50 | 5.25584 | -3.92996 | 34 ft | 1 kts | 23° |
| 2026-05-07 10:50 | 5.25600 | -3.92989 | 34 ft | 3 kts | 22° |
| 2026-05-07 10:51 | 5.25631 | -3.92976 | 34 ft | 5 kts | 22° |
| 2026-05-07 10:51 | 5.25677 | -3.92958 | 34 ft | 8 kts | 22° |
| 2026-05-07 10:51 | 5.25743 | -3.92930 | 32 ft | 11 kts | 22° |
| 2026-05-07 10:51 | 5.25826 | -3.92896 | 32 ft | 13 kts | 22° |
| 2026-05-07 10:52 | 5.25917 | -3.92859 | 32 ft | 14 kts | 22° |
| 2026-05-07 10:52 | 5.26014 | -3.92819 | 31 ft | 15 kts | 22° |
| 2026-05-07 10:52 | 5.26123 | -3.92773 | 28 ft | 18 kts | 22° |
| 2026-05-07 10:52 | 5.26242 | -3.92724 | 29 ft | 18 kts | 22° |
| 2026-05-07 10:53 | 5.26362 | -3.92675 | 29 ft | 18 kts | 22° |
| 2026-05-07 10:53 | 5.26484 | -3.92625 | 28 ft | 19 kts | 22° |
| 2026-05-07 10:53 | 5.26616 | -3.92570 | 25 ft | 21 kts | 22° |
| 2026-05-07 10:53 | 5.26752 | -3.92514 | 25 ft | 21 kts | 22° |
| 2026-05-07 10:54 | 5.26888 | -3.92458 | 25 ft | 20 kts | 22° |
| 2026-05-07 10:54 | 5.27024 | -3.92402 | 25 ft | 20 kts | 22° |
| 2026-05-07 10:54 | 5.27118 | -3.92363 | 25 ft | 10 kts | 22° |
| 2026-05-07 10:54 | 5.27167 | -3.92332 | 25 ft | 6 kts | 64° |
| 2026-05-07 10:55 | 5.27163 | -3.92285 | 25 ft | 6 kts | 114° |
| 2026-05-07 10:55 | 5.27142 | -3.92238 | 25 ft | 8 kts | 113° |
| 2026-05-07 10:55 | 5.27119 | -3.92190 | 25 ft | 5 kts | 137° |
| 2026-05-07 10:55 | 5.27079 | -3.92194 | 26 ft | 4 kts | 203° |
| 2026-05-07 10:56 | 5.27078 | -3.92195 | 25 ft | 0 kts | 203° |
| 2026-05-07 10:56 | 5.27064 | -3.92201 | 25 ft | 15 kts | 203° |
| 2026-05-07 10:56 | 5.26668 | -3.92363 | 26 ft | 102 kts | 202° |
| 2026-05-07 10:56 | 5.25781 | -3.92731 | 38 ft | 169 kts | 204° |
| 2026-05-07 10:57 | 5.24644 | -3.93209 | 621 ft | 181 kts | 204° |
| 2026-05-07 10:57 | 5.23474 | -3.93704 | 1418 ft | 189 kts | 204° |
| 2026-05-07 10:57 | 5.22268 | -3.94230 | 2291 ft | 190 kts | 209° |
| 2026-05-07 10:57 | 5.21336 | -3.95176 | 2863 ft | 203 kts | 249° |
| 2026-05-07 10:58 | 5.21197 | -3.96616 | 3343 ft | 224 kts | 281° |
| 2026-05-07 10:58 | 5.21900 | -3.98036 | 3953 ft | 242 kts | 313° |
| 2026-05-07 10:58 | 5.23349 | -3.98975 | 4575 ft | 258 kts | 344° |
| 2026-05-07 10:58 | 5.25183 | -3.99093 | 5236 ft | 270 kts | 13° |
| 2026-05-07 10:59 | 5.26878 | -3.98320 | 6117 ft | 272 kts | 38° |
| 2026-05-07 10:59 | 5.28409 | -3.97215 | 7055 ft | 274 kts | 29° |
| 2026-05-07 10:59 | 5.30246 | -3.96731 | 7961 ft | 281 kts | 3° |
| 2026-05-07 10:59 | 5.32162 | -3.97127 | 8846 ft | 290 kts | 338° |
| 2026-05-07 11:00 | 5.33809 | -3.98368 | 9644 ft | 303 kts | 313° |
| 2026-05-07 11:00 | 5.34908 | -4.00204 | 10373 ft | 314 kts | 298° |
| 2026-05-07 11:00 | 5.35857 | -4.02213 | 10854 ft | 330 kts | 299° |
| 2026-05-07 11:00 | 5.36198 | -4.02888 | 11032 ft | 334 kts | 300° |